Terminal Aerodrome Forecast
Issued by NWS

Home | Current Version | Previous Version | Text Only | Print | Product List | Glossary On
Versions: 1 2 3 4 5 6 7 8 9 10 11 12 13 14 15 16 17 18 19 20 21
000
FTAK31 PAJN 191131
TAFAPG
TAF
PAPG 191131Z 1912/2012 10010KT P6SM -SHRA BKN025 OVC035
      WS020/13030KT
     FM191500 23003KT P6SM -SHRA SCT015 OVC030
     FM192100 VRB03KT P6SM VCSH FEW007 SCT015 BKN050
      AMD LTD TO CLD VIS AND WIND 1912/1915=

USA.gov is the U.S. government's official web portal to all federal, state and local government web resources and services.